createdAt,value
2019-04-27T00:01:12.015Z,65.82
2019-04-27T00:03:48.878Z,65.71
2019-04-27T00:06:24.367Z,65.76
2019-04-27T00:08:59.906Z,65.83
2019-04-27T00:11:37.368Z,65.93
2019-04-27T00:14:10.301Z,66.00
2019-04-27T00:16:50.576Z,66.18
2019-04-27T00:19:36.119Z,66.29
2019-04-27T00:22:26.831Z,66.44
2019-04-27T00:24:57.834Z,66.25
2019-04-27T00:27:28.735Z,66.40
2019-04-27T00:29:59.666Z,66.45
2019-04-27T00:32:30.581Z,66.46
2019-04-27T00:35:03.736Z,66.63
2019-04-27T00:37:48.446Z,66.71
2019-04-27T00:40:24.017Z,66.69
2019-04-27T00:42:54.920Z,66.68
2019-04-27T00:45:25.922Z,66.75
2019-04-27T00:47:59.867Z,66.76
2019-04-27T00:50:30.542Z,66.77
2019-04-27T00:53:03.265Z,66.82
2019-04-27T00:55:35.704Z,66.76
2019-04-27T00:58:08.238Z,66.87
2019-04-27T01:00:57.240Z,66.93
2019-04-27T01:03:33.212Z,66.89
2019-04-27T01:06:05.842Z,66.87
2019-04-27T01:08:36.823Z,66.99
2019-04-27T01:11:07.750Z,66.95
2019-04-27T01:13:38.646Z,66.91
2019-04-27T01:16:10.487Z,67.00
2019-04-27T01:18:42.424Z,67.15
2019-04-27T01:21:13.380Z,67.21
2019-04-27T01:23:44.285Z,67.18
2019-04-27T01:26:19.562Z,67.29
2019-04-27T01:28:52.909Z,67.42
2019-04-27T01:31:23.896Z,67.37
2019-04-27T01:33:54.807Z,67.43
2019-04-27T01:36:29.055Z,67.42
2019-04-27T01:39:00.184Z,67.32
2019-04-27T01:41:31.102Z,67.17
2019-04-27T01:44:02.010Z,67.13
2019-04-27T01:46:32.949Z,67.10
2019-04-27T01:49:04.338Z,67.14
2019-04-27T01:51:35.403Z,67.25
2019-04-27T01:54:07.941Z,67.18
2019-04-27T01:56:39.478Z,67.13
2019-04-27T01:59:10.703Z,67.10
2019-04-27T02:01:43.690Z,67.52
2019-04-27T02:04:19.484Z,67.57
2019-04-27T02:06:55.989Z,67.49
2019-04-27T02:09:28.791Z,67.46
2019-04-27T02:11:59.591Z,67.39
2019-04-27T02:14:30.508Z,67.30
2019-04-27T02:17:01.525Z,67.53
2019-04-27T02:19:32.432Z,67.61
2019-04-27T02:22:03.451Z,67.64
2019-04-27T02:24:34.385Z,67.84
2019-04-27T02:27:05.315Z,67.90
2019-04-27T02:29:54.156Z,67.86
2019-04-27T02:32:39.699Z,67.82
2019-04-27T02:35:11.855Z,67.86
2019-04-27T02:37:43.762Z,67.75
2019-04-27T02:40:33.960Z,67.80
2019-04-27T02:43:06.581Z,67.77
2019-04-27T02:45:40.211Z,67.67
2019-04-27T02:48:10.192Z,67.96
2019-04-27T02:50:42.787Z,68.12
2019-04-27T02:53:13.817Z,68.19
2019-04-27T02:55:44.717Z,68.21
2019-04-27T02:58:15.745Z,68.35
2019-04-27T03:00:46.722Z,68.30
2019-04-27T03:03:20.242Z,68.22
2019-04-27T03:05:50.595Z,68.29
2019-04-27T03:08:21.578Z,68.37
2019-04-27T03:10:52.614Z,68.51
2019-04-27T03:13:25.215Z,68.51
2019-04-27T03:16:00.229Z,68.56
2019-04-27T03:18:32.792Z,68.79
2019-04-27T03:21:13.108Z,68.78
2019-04-27T03:23:44.955Z,68.85
2019-04-27T03:26:19.590Z,68.84
2019-04-27T03:28:50.477Z,68.85
2019-04-27T03:31:21.971Z,69.13
2019-04-27T03:33:59.130Z,70.30
2019-04-27T03:36:25.523Z,70.34
2019-04-27T03:38:56.956Z,70.08
2019-04-27T03:41:29.270Z,69.99
2019-04-27T03:44:00.435Z,69.73
2019-04-27T03:46:31.337Z,69.41
2019-04-27T03:49:03.035Z,69.30
2019-04-27T03:51:40.186Z,69.11
2019-04-27T03:54:15.726Z,69.13
2019-04-27T03:56:50.480Z,69.06
2019-04-27T03:59:40.375Z,68.97
2019-04-27T04:02:10.410Z,68.93
2019-04-27T04:04:41.346Z,68.76
2019-04-27T04:07:14.296Z,68.42
2019-04-27T04:09:45.275Z,68.07
2019-04-27T04:12:19.730Z,67.57
2019-04-27T04:14:50.454Z,66.87
2019-04-27T04:17:22.980Z,66.47
2019-04-27T04:19:57.995Z,66.12
2019-04-27T04:22:26.569Z,65.42
2019-04-27T04:24:59.939Z,64.91
2019-04-27T04:27:31.094Z,64.12
2019-04-27T04:30:02.056Z,63.46
2019-04-27T04:32:32.967Z,63.31
2019-04-27T04:35:23.719Z,63.03
2019-04-27T04:37:54.632Z,62.51
2019-04-27T04:40:30.457Z,61.94
2019-04-27T04:43:11.140Z,60.84
2019-04-27T04:45:50.329Z,60.18
2019-04-27T04:48:21.922Z,59.77
2019-04-27T04:50:52.853Z,59.15
2019-04-27T04:53:25.015Z,58.89
2019-04-27T04:55:56.871Z,58.41
2019-04-27T04:58:29.409Z,58.35
2019-04-27T05:01:01.877Z,58.23
2019-04-27T05:03:32.954Z,58.78
2019-04-27T05:06:03.912Z,58.41
2019-04-27T05:08:34.804Z,58.26
2019-04-27T05:11:06.526Z,57.91
2019-04-27T05:13:39.280Z,57.57
2019-04-27T05:16:10.040Z,57.22
2019-04-27T05:18:40.864Z,56.87
2019-04-27T05:21:22.678Z,56.31
2019-04-27T05:23:53.596Z,56.02
2019-04-27T05:26:25.439Z,55.58
2019-04-27T05:28:59.119Z,55.42
2019-04-27T05:31:29.882Z,54.89
2019-04-27T05:34:00.824Z,54.69
2019-04-27T05:36:31.759Z,54.38
2019-04-27T05:39:02.733Z,54.17
2019-04-27T05:41:37.597Z,54.12
2019-04-27T05:44:11.128Z,53.83
2019-04-27T05:46:54.123Z,53.71
2019-04-27T05:49:26.667Z,53.57
2019-04-27T05:51:59.362Z,53.12
2019-04-27T05:54:31.106Z,52.69
2019-04-27T05:57:03.227Z,51.98
2019-04-27T05:59:34.205Z,51.39
2019-04-27T06:02:05.150Z,50.86
2019-04-27T06:04:36.062Z,50.35
2019-04-27T06:07:09.109Z,50.10
2019-04-27T06:09:39.693Z,49.80
2019-04-27T06:12:11.627Z,49.31
2019-04-27T06:14:42.574Z,49.04
2019-04-27T06:17:13.594Z,48.56
2019-04-27T06:19:44.516Z,48.37
2019-04-27T06:22:15.461Z,48.06
2019-04-27T06:24:46.360Z,47.73
